Wahpeton, North Dakota
Current Conditions -  °F | °C
As of 8:55 PM on Thursday 27 Nov 2014 (Local Time) from KBWP Reporting Station
Overcast Overcast  
Wind Chill: -11°   Ceiling: 700
Heat Index:   Visibility: 1.5mi
Dew Point:   Wind: 16mph
Humidity: 79%   Direction: 140°SE
Pressure: 30.18"   Gusts: 21mph
Location:  46.26°N, 96.6°W
Report Text: KBWP 280255Z AUTO 14014G18KT 1 1/2SM OVC007 M14/M17 A3018 RMK AO1
Loading
Personal Weather Stations






























Interactive Weather Map New forecast layout! Learn more

10-Day Weather Forecast

Advertisements
Track Severe Weather on mobile